Terminal Aerodrome Forecast
Issued by NWS

Home | Current Version | Previous Version | Text Only | Print | Product List | Glossary On
Versions: 1 2 3 4 5 6 7 8 9 10 11 12 13 14 15 16
000
FTUS45 KABQ 070542
TAFLVS
TAF
KLVS 070542Z 0706/0806 05008KT P6SM VCSH BKN015
     FM071000 05007KT 4SM BR OVC010
     FM071700 15007KT P6SM BKN025
     FM072200 19011KT P6SM VCTS BKN035CB OVC100
     FM080100 15010KT P6SM VCSH SCT025 BKN070=

USA.gov is the U.S. government's official web portal to all federal, state and local government web resources and services.